Time;durP1;ratioP1;P1;durP2;ratioP2;P2;SDS_P1;SDS_P2;PMS_P1;PMS_P2;Temp;Humidity;BMP_temperature;BMP_pressure;BME280_temperature;BME280_humidity;BME280_pressure;Samples;Min_cycle;Max_cycle;Signal;HPM_P1;HPM_P2
2021/12/13 00:00:47;;;;;;;;;;;19.00;47.00;;;;;;5073134;28;19912;-61
2021/12/13 00:03:13;;;;;;;;;;;19.00;47.10;;;;;;5084763;28;19918;-62
2021/12/13 00:05:41;;;;;;;;;;;19.10;47.00;;;;;;5070486;28;19916;-61
2021/12/13 00:08:09;;;;;;;;;;;19.00;46.80;;;;;;5072812;28;19912;-62
2021/12/13 00:10:36;;;;;;;;;;;19.00;47.20;;;;;;5086892;28;20267;-61
2021/12/13 00:13:06;;;;;;;;;;;19.00;47.00;;;;;;5071745;28;20399;-61
2021/12/13 00:15:33;;;;;;;;;;;19.00;47.00;;;;;;5073512;28;20032;-62
2021/12/13 00:18:00;;;;;;;;;;;19.00;47.00;;;;;;5073850;28;19920;-61
2021/12/13 00:20:36;;;;;;;;;;;19.00;46.90;;;;;;5065776;28;19916;-61
2021/12/13 00:23:03;;;;;;;;;;;19.00;47.00;;;;;;5086216;28;19913;-61
2021/12/13 00:25:28;;;;;;;;;;;19.00;47.00;;;;;;5081873;28;20336;-61
2021/12/13 00:27:55;;;;;;;;;;;18.90;46.90;;;;;;5088747;28;19919;-62
2021/12/13 00:30:26;;;;;;;;;;;18.90;47.00;;;;;;5091297;28;20291;-61
2021/12/13 00:32:58;;;;;;;;;;;18.90;47.00;;;;;;5084771;28;19917;-61
2021/12/13 00:35:25;;;;;;;;;;;18.90;47.00;;;;;;5086500;28;19917;-61
2021/12/13 00:37:52;;;;;;;;;;;18.90;47.00;;;;;;5082506;28;19920;-61
2021/12/13 00:40:20;;;;;;;;;;;18.90;47.00;;;;;;5072432;28;19909;-61
2021/12/13 00:42:48;;;;;;;;;;;18.90;47.00;;;;;;5072289;28;19916;-61
2021/12/13 00:45:14;;;;;;;;;;;18.80;47.00;;;;;;5082173;28;19918;-61
2021/12/13 00:47:39;;;;;;;;;;;18.80;47.10;;;;;;5073982;28;19991;-61
2021/12/13 00:50:25;;;;;;;;;;;18.70;47.20;;;;;;5087464;28;19920;-61
2021/12/13 00:52:51;;;;;;;;;;;18.70;47.30;;;;;;5087513;28;19969;-61
2021/12/13 00:55:20;;;;;;;;;;;18.70;47.20;;;;;;5089445;28;20288;-61
2021/12/13 00:57:47;;;;;;;;;;;18.70;47.20;;;;;;5080780;28;19924;-61
2021/12/13 01:00:13;;;;;;;;;;;18.70;47.20;;;;;;5076031;28;20041;-61
2021/12/13 01:02:41;;;;;;;;;;;18.70;47.20;;;;;;5075674;28;20006;-61
2021/12/13 01:05:12;;;;;;;;;;;18.80;47.20;;;;;;5080323;28;19990;-61
2021/12/13 01:07:57;;;;;;;;;;;18.80;47.30;;;;;;5089163;28;19920;-61
2021/12/13 01:10:28;;;;;;;;;;;18.70;47.20;;;;;;5077911;28;20436;-61
2021/12/13 01:12:54;;;;;;;;;;;18.70;47.30;;;;;;5090439;28;19920;-61
2021/12/13 01:15:30;;;;;;;;;;;18.70;47.40;;;;;;5091346;28;20031;-62
2021/12/13 01:18:04;;;;;;;;;;;18.60;47.40;;;;;;5071870;28;20138;-62
2021/12/13 01:20:43;;;;;;;;;;;18.60;47.40;;;;;;5095719;28;19912;-61
2021/12/13 01:23:13;;;;;;;;;;;18.60;47.40;;;;;;5089054;28;20420;-61
2021/12/13 01:25:46;;;;;;;;;;;18.60;47.40;;;;;;5072443;28;20002;-61
2021/12/13 01:28:12;;;;;;;;;;;18.60;47.60;;;;;;5087496;28;20007;-61
2021/12/13 01:30:39;;;;;;;;;;;18.60;47.50;;;;;;5075606;28;20368;-62
2021/12/13 01:33:06;;;;;;;;;;;18.60;47.50;;;;;;5085196;28;19993;-61
2021/12/13 01:35:32;;;;;;;;;;;18.60;47.50;;;;;;5088075;28;20432;-62
2021/12/13 01:38:03;;;;;;;;;;;18.50;47.50;;;;;;5076873;28;19923;-61
2021/12/13 01:40:29;;;;;;;;;;;18.50;47.60;;;;;;5082631;28;19960;-61
2021/12/13 01:42:56;;;;;;;;;;;18.50;47.60;;;;;;5100890;28;20646;-61
2021/12/13 01:45:21;;;;;;;;;;;18.50;47.60;;;;;;5098745;28;19913;-61
2021/12/13 01:47:47;;;;;;;;;;;18.50;47.60;;;;;;5075746;28;19913;-61
2021/12/13 01:50:17;;;;;;;;;;;18.50;47.60;;;;;;5071370;28;20338;-61
2021/12/13 01:52:43;;;;;;;;;;;18.50;47.60;;;;;;5079319;28;20007;-62
2021/12/13 01:55:21;;;;;;;;;;;18.50;47.60;;;;;;5087257;28;19916;-62
2021/12/13 01:57:55;;;;;;;;;;;18.50;47.60;;;;;;5091738;28;19986;-61
2021/12/13 02:00:33;;;;;;;;;;;18.50;47.60;;;;;;5085037;28;20038;-61
2021/12/13 02:02:58;;;;;;;;;;;18.50;47.60;;;;;;5091645;28;19917;-61
2021/12/13 02:05:25;;;;;;;;;;;18.50;47.70;;;;;;5083649;28;19912;-61
2021/12/13 02:07:55;;;;;;;;;;;18.50;47.70;;;;;;5089688;28;19913;-61
2021/12/13 02:10:23;;;;;;;;;;;18.50;47.70;;;;;;5088774;28;19916;-62
2021/12/13 02:12:55;;;;;;;;;;;18.40;47.70;;;;;;5079227;28;20015;-61
2021/12/13 02:18:04;;;;;;;;;;;18.50;47.60;;;;;;5079640;28;20437;-61
2021/12/13 02:20:32;;;;;;;;;;;18.50;47.60;;;;;;5089593;28;19948;-61
2021/12/13 02:22:57;;;;;;;;;;;18.40;47.90;;;;;;5090718;28;20356;-61
2021/12/13 02:25:27;;;;;;;;;;;18.40;48.00;;;;;;5089010;28;20010;-61
2021/12/13 02:28:10;;;;;;;;;;;18.50;48.10;;;;;;5073720;28;19970;-62
2021/12/13 02:30:40;;;;;;;;;;;18.60;48.00;;;;;;5081297;28;19908;-61
2021/12/13 02:33:10;;;;;;;;;;;18.70;47.60;;;;;;5074936;28;19913;-61
2021/12/13 02:35:38;;;;;;;;;;;18.90;47.40;;;;;;5076573;28;19913;-62
2021/12/13 02:38:04;;;;;;;;;;;19.00;47.20;;;;;;5074955;28;19916;-62
2021/12/13 02:40:29;;;;;;;;;;;19.20;47.00;;;;;;5073612;28;20299;-61
2021/12/13 02:42:55;;;;;;;;;;;19.40;46.70;;;;;;5073606;28;19908;-62
2021/12/13 02:45:26;;;;;;;;;;;19.60;46.30;;;;;;5068005;28;20372;-61
2021/12/13 02:47:56;;;;;;;;;;;19.80;46.10;;;;;;5077519;28;19934;-61
2021/12/13 02:50:24;;;;;;;;;;;20.00;45.80;;;;;;5072525;28;19915;-62
2021/12/13 02:52:49;;;;;;;;;;;20.10;45.40;;;;;;5073362;28;19908;-61
2021/12/13 02:55:20;;;;;;;;;;;20.20;45.20;;;;;;5056332;28;19909;-61
2021/12/13 02:57:47;;;;;;;;;;;20.30;45.00;;;;;;5074393;28;19912;-62
2021/12/13 03:00:15;;;;;;;;;;;20.40;44.70;;;;;;5074510;28;19973;-61
2021/12/13 03:02:41;;;;;;;;;;;20.50;44.90;;;;;;5078627;28;19969;-62
2021/12/13 03:05:08;;;;;;;;;;;20.50;44.80;;;;;;5081083;28;19912;-61
2021/12/13 03:07:35;;;;;;;;;;;20.60;44.90;;;;;;5090077;28;19912;-62
2021/12/13 03:10:01;;;;;;;;;;;20.60;44.70;;;;;;5094455;28;19915;-62
2021/12/13 03:12:27;;;;;;;;;;;20.60;44.90;;;;;;5094475;28;20019;-61
2021/12/13 03:15:03;;;;;;;;;;;20.50;44.80;;;;;;5093015;28;19960;-61
2021/12/13 03:17:33;;;;;;;;;;;20.50;44.80;;;;;;5093135;28;19912;-63
2021/12/13 03:20:10;;;;;;;;;;;20.50;45.10;;;;;;5093854;28;20322;-62
2021/12/13 03:22:45;;;;;;;;;;;20.40;45.30;;;;;;5094787;28;19908;-62
2021/12/13 03:25:30;;;;;;;;;;;20.30;45.40;;;;;;5094160;28;20295;-61
2021/12/13 03:28:03;;;;;;;;;;;20.30;45.70;;;;;;5093939;28;19908;-61
2021/12/13 03:30:30;;;;;;;;;;;20.20;45.70;;;;;;5092934;28;19910;-62
2021/12/13 03:33:10;;;;;;;;;;;20.20;45.80;;;;;;5093144;28;19953;-61
2021/12/13 03:35:38;;;;;;;;;;;20.10;45.90;;;;;;5086534;28;19919;-62
2021/12/13 03:38:06;;;;;;;;;;;20.10;45.90;;;;;;5060675;28;19999;-62
2021/12/13 03:40:31;;;;;;;;;;;20.10;46.10;;;;;;5073518;28;19995;-61
2021/12/13 03:42:57;;;;;;;;;;;20.10;46.20;;;;;;5087906;28;20049;-61
2021/12/13 03:45:28;;;;;;;;;;;20.10;46.30;;;;;;5073306;28;19920;-62
2021/12/13 03:47:56;;;;;;;;;;;20.00;46.40;;;;;;5085987;28;19923;-62
2021/12/13 03:50:23;;;;;;;;;;;19.90;46.60;;;;;;5075448;28;20287;-61
2021/12/13 03:52:50;;;;;;;;;;;19.90;46.70;;;;;;5083816;28;20007;-61
2021/12/13 03:55:16;;;;;;;;;;;19.90;46.80;;;;;;5073936;28;19908;-61
2021/12/13 03:57:49;;;;;;;;;;;19.90;46.80;;;;;;5092699;28;19916;-61
2021/12/13 04:00:16;;;;;;;;;;;20.00;46.90;;;;;;5082088;28;19909;-62
2021/12/13 04:02:41;;;;;;;;;;;20.00;46.90;;;;;;5092399;28;19998;-61
2021/12/13 04:05:08;;;;;;;;;;;20.10;46.80;;;;;;5081725;28;20007;-62
2021/12/13 04:07:41;;;;;;;;;;;20.10;46.80;;;;;;5073393;28;20392;-62
2021/12/13 04:10:13;;;;;;;;;;;20.10;46.70;;;;;;5055013;28;20388;-61
2021/12/13 04:12:45;;;;;;;;;;;20.10;46.70;;;;;;5072946;28;20316;-62
2021/12/13 04:15:26;;;;;;;;;;;20.10;46.70;;;;;;5085169;28;20360;-61
2021/12/13 04:18:12;;;;;;;;;;;20.10;46.90;;;;;;5088173;28;19978;-61
2021/12/13 04:20:37;;;;;;;;;;;20.10;47.00;;;;;;5071121;28;20003;-63
2021/12/13 04:23:09;;;;;;;;;;;20.10;47.10;;;;;;5073089;28;20287;-61
2021/12/13 04:25:36;;;;;;;;;;;20.10;47.20;;;;;;5078900;28;20368;-61
2021/12/13 04:28:04;;;;;;;;;;;20.00;47.30;;;;;;5091882;28;19908;-62
2021/12/13 04:30:30;;;;;;;;;;;19.90;47.30;;;;;;5091747;28;19908;-62
2021/12/13 04:32:57;;;;;;;;;;;19.90;47.50;;;;;;5090404;28;20440;-62
2021/12/13 04:35:22;;;;;;;;;;;19.80;47.70;;;;;;5071641;28;19909;-62
2021/12/13 04:37:49;;;;;;;;;;;19.80;47.90;;;;;;5072794;28;19942;-61
2021/12/13 04:40:16;;;;;;;;;;;19.70;48.10;;;;;;5054171;28;19908;-62
2021/12/13 04:42:41;;;;;;;;;;;19.70;48.10;;;;;;5072406;28;19931;-61
2021/12/13 04:45:08;;;;;;;;;;;19.70;48.20;;;;;;5085365;28;19908;-62
2021/12/13 04:47:34;;;;;;;;;;;19.70;48.30;;;;;;5091417;28;19974;-62
2021/12/13 04:50:04;;;;;;;;;;;19.70;48.30;;;;;;5089560;28;20360;-61
2021/12/13 04:52:30;;;;;;;;;;;19.70;48.30;;;;;;5101704;28;19916;-62
2021/12/13 04:54:55;;;;;;;;;;;19.70;48.30;;;;;;5090795;28;19960;-62
2021/12/13 04:57:21;;;;;;;;;;;19.80;48.30;;;;;;5092074;28;19908;-62
2021/12/13 04:59:48;;;;;;;;;;;19.80;48.30;;;;;;5090825;28;20399;-61
2021/12/13 05:02:13;;;;;;;;;;;19.80;48.20;;;;;;5091713;28;20485;-61
2021/12/13 05:04:38;;;;;;;;;;;19.90;48.20;;;;;;5079946;28;19956;-61
2021/12/13 05:07:04;;;;;;;;;;;19.90;48.00;;;;;;5087327;28;19916;-61
2021/12/13 05:09:30;;;;;;;;;;;20.00;48.00;;;;;;5087582;28;20360;-62
2021/12/13 05:11:55;;;;;;;;;;;20.00;47.90;;;;;;5072018;28;19908;-61
2021/12/13 05:14:39;;;;;;;;;;;20.00;47.80;;;;;;5078173;28;20337;-61
2021/12/13 05:17:06;;;;;;;;;;;20.00;47.80;;;;;;5090414;28;19946;-62
2021/12/13 05:19:34;;;;;;;;;;;20.00;47.80;;;;;;5087646;28;19916;-62
2021/12/13 05:22:00;;;;;;;;;;;20.00;47.80;;;;;;5091298;28;19920;-61
2021/12/13 05:24:27;;;;;;;;;;;20.00;47.70;;;;;;5066427;28;19909;-61
2021/12/13 05:26:54;;;;;;;;;;;20.00;47.80;;;;;;5076334;28;19967;-62
2021/12/13 05:29:33;;;;;;;;;;;20.00;47.80;;;;;;5087538;28;19916;-61
2021/12/13 05:32:00;;;;;;;;;;;20.00;47.80;;;;;;5091191;28;20420;-61
2021/12/13 05:34:29;;;;;;;;;;;20.00;48.00;;;;;;5083693;28;19914;-61
2021/12/13 05:36:55;;;;;;;;;;;19.90;47.90;;;;;;5080235;28;19924;-61
2021/12/13 05:39:21;;;;;;;;;;;19.90;48.00;;;;;;5091950;28;19912;-61
2021/12/13 05:41:50;;;;;;;;;;;19.90;48.00;;;;;;5091727;28;19919;-62
2021/12/13 05:44:17;;;;;;;;;;;19.90;48.00;;;;;;5090399;28;19908;-61
2021/12/13 05:46:43;;;;;;;;;;;19.90;48.00;;;;;;5090562;28;19908;-62
2021/12/13 05:49:18;;;;;;;;;;;19.90;48.00;;;;;;5090523;28;19920;-62
2021/12/13 05:51:49;;;;;;;;;;;19.90;48.00;;;;;;5071673;28;19966;-62
2021/12/13 05:54:20;;;;;;;;;;;19.90;47.90;;;;;;5085044;28;19923;-62
2021/12/13 05:56:47;;;;;;;;;;;19.90;48.60;;;;;;5091896;28;19917;-61
2021/12/13 05:59:17;;;;;;;;;;;19.90;48.00;;;;;;5090241;28;19919;-62
2021/12/13 06:01:49;;;;;;;;;;;19.90;47.90;;;;;;5092042;28;20316;-62
2021/12/13 06:04:35;;;;;;;;;;;19.90;48.00;;;;;;5091984;28;20276;-62
2021/12/13 06:07:00;;;;;;;;;;;19.90;48.00;;;;;;5083189;28;19909;-63
2021/12/13 06:09:41;;;;;;;;;;;19.90;48.00;;;;;;5090598;28;19915;-62
2021/12/13 06:12:08;;;;;;;;;;;19.90;48.00;;;;;;5090480;28;19919;-62
2021/12/13 06:14:33;;;;;;;;;;;19.90;48.00;;;;;;5093803;28;19916;-62
2021/12/13 06:16:59;;;;;;;;;;;19.90;47.90;;;;;;5092192;28;19912;-62
2021/12/13 06:19:24;;;;;;;;;;;19.90;48.00;;;;;;5078178;28;19917;-62
2021/12/13 06:22:02;;;;;;;;;;;19.90;48.00;;;;;;5076880;28;19957;-62
2021/12/13 06:24:29;;;;;;;;;;;20.00;48.10;;;;;;5083292;28;20280;-61
2021/12/13 06:27:09;;;;;;;;;;;19.90;48.00;;;;;;5086765;28;19999;-61
2021/12/13 06:29:45;;;;;;;;;;;19.90;48.00;;;;;;5094367;28;20280;-62
2021/12/13 06:32:24;;;;;;;;;;;19.90;48.10;;;;;;5093909;28;19912;-62
2021/12/13 06:34:50;;;;;;;;;;;20.00;48.10;;;;;;5092946;28;19961;-62
2021/12/13 06:37:21;;;;;;;;;;;19.90;48.00;;;;;;5094852;28;19908;-62
2021/12/13 06:39:46;;;;;;;;;;;19.90;48.00;;;;;;5076455;28;19919;-62
2021/12/13 06:42:14;;;;;;;;;;;19.90;48.00;;;;;;5076509;28;19912;-61
2021/12/13 06:44:41;;;;;;;;;;;19.90;48.00;;;;;;5076837;28;20300;-61
2021/12/13 06:47:07;;;;;;;;;;;20.00;48.10;;;;;;5074533;28;19912;-62
2021/12/13 06:49:34;;;;;;;;;;;19.90;47.90;;;;;;5074234;28;20276;-62
2021/12/13 06:52:01;;;;;;;;;;;20.00;48.10;;;;;;5076445;28;20330;-62
2021/12/13 06:54:46;;;;;;;;;;;20.00;48.10;;;;;;5074107;28;19968;-61
2021/12/13 06:57:20;;;;;;;;;;;20.00;48.00;;;;;;5084207;28;19924;-62
2021/12/13 06:59:46;;;;;;;;;;;19.90;47.90;;;;;;5074135;28;20027;-61
2021/12/13 07:02:13;;;;;;;;;;;19.90;48.00;;;;;;5087102;28;19998;-62
2021/12/13 07:04:49;;;;;;;;;;;19.90;48.00;;;;;;5082651;28;19943;-62
2021/12/13 07:07:15;;;;;;;;;;;19.90;48.00;;;;;;5082702;28;19912;-61
2021/12/13 07:09:40;;;;;;;;;;;19.90;48.00;;;;;;5094316;28;19922;-62
2021/12/13 07:12:14;;;;;;;;;;;20.00;48.10;;;;;;5072509;28;19912;-62
2021/12/13 07:14:39;;;;;;;;;;;19.90;48.00;;;;;;5079982;28;19929;-62
2021/12/13 07:17:15;;;;;;;;;;;20.00;48.00;;;;;;5079499;28;19931;-61
2021/12/13 07:19:42;;;;;;;;;;;20.00;48.10;;;;;;5085333;28;19919;-62
2021/12/13 07:22:08;;;;;;;;;;;20.00;48.00;;;;;;5094188;28;19914;-62
2021/12/13 07:24:47;;;;;;;;;;;20.00;48.00;;;;;;5086836;28;19920;-62
2021/12/13 07:27:14;;;;;;;;;;;20.00;48.00;;;;;;5076098;28;19935;-61
2021/12/13 07:29:43;;;;;;;;;;;20.00;48.00;;;;;;5080122;28;19927;-62
2021/12/13 07:32:16;;;;;;;;;;;20.00;48.00;;;;;;5089918;28;20418;-62
2021/12/13 07:35:00;;;;;;;;;;;20.00;48.00;;;;;;5076516;28;19966;-61
2021/12/13 07:37:33;;;;;;;;;;;20.00;48.00;;;;;;5079387;28;19916;-63
2021/12/13 07:40:28;;;;;;;;;;;20.00;48.00;;;;;;5075350;28;20416;-63
2021/12/13 07:42:58;;;;;;;;;;;20.10;48.00;;;;;;5072589;28;19920;-63
2021/12/13 07:45:24;;;;;;;;;;;20.20;47.50;;;;;;5085044;28;19908;-63
2021/12/13 07:47:50;;;;;;;;;;;20.40;47.30;;;;;;5077064;28;20291;-63
2021/12/13 07:50:15;;;;;;;;;;;20.50;47.10;;;;;;5082713;28;19912;-64
2021/12/13 07:52:41;;;;;;;;;;;20.70;46.90;;;;;;5080105;28;19919;-63
2021/12/13 07:55:17;;;;;;;;;;;20.80;46.70;;;;;;5095832;28;19912;-63
2021/12/13 07:57:42;;;;;;;;;;;20.90;46.50;;;;;;5080547;28;20021;-62
2021/12/13 08:00:12;;;;;;;;;;;21.00;46.40;;;;;;5084803;28;19916;-63
2021/12/13 08:02:37;;;;;;;;;;;21.10;46.30;;;;;;5078468;28;19932;-63
2021/12/13 08:05:09;;;;;;;;;;;21.10;46.10;;;;;;5089752;28;20411;-63
2021/12/13 08:07:43;;;;;;;;;;;21.20;46.10;;;;;;5064327;28;19923;-63
2021/12/13 08:10:13;;;;;;;;;;;21.20;46.00;;;;;;5083199;28;19962;-63
2021/12/13 08:12:40;;;;;;;;;;;21.30;45.90;;;;;;5083981;28;19969;-63
2021/12/13 08:15:08;;;;;;;;;;;21.30;45.90;;;;;;5074986;28;19916;-63
2021/12/13 08:17:39;;;;;;;;;;;21.30;45.90;;;;;;5084029;28;19927;-63
2021/12/13 08:20:06;;;;;;;;;;;21.30;45.90;;;;;;5085069;28;20357;-63
2021/12/13 08:22:31;;;;;;;;;;;21.30;45.90;;;;;;5082539;28;19912;-62
2021/12/13 08:25:00;;;;;;;;;;;21.30;45.90;;;;;;5082571;28;21285;-63
2021/12/13 08:27:28;;;;;;;;;;;21.30;45.90;;;;;;5091022;28;20322;-63
2021/12/13 08:30:07;;;;;;;;;;;21.30;46.00;;;;;;5088272;28;19916;-63
2021/12/13 08:32:33;;;;;;;;;;;21.20;45.90;;;;;;5073377;28;20004;-63
2021/12/13 08:34:58;;;;;;;;;;;21.20;46.00;;;;;;5075881;28;20015;-63
2021/12/13 08:37:29;;;;;;;;;;;21.20;46.00;;;;;;5081715;28;19999;-63
2021/12/13 08:39:57;;;;;;;;;;;21.20;46.10;;;;;;5083191;28;19916;-63
2021/12/13 08:42:23;;;;;;;;;;;21.20;46.10;;;;;;5073730;28;19955;-63
2021/12/13 08:44:54;;;;;;;;;;;21.20;46.20;;;;;;5078874;28;19916;-63
2021/12/13 08:47:21;;;;;;;;;;;21.10;46.10;;;;;;5080711;28;20391;-64
2021/12/13 08:49:50;;;;;;;;;;;21.10;46.30;;;;;;5084341;28;19908;-63
2021/12/13 08:52:16;;;;;;;;;;;21.10;46.30;;;;;;5085956;28;19958;-63
2021/12/13 08:54:47;;;;;;;;;;;21.20;46.40;;;;;;5083767;28;19913;-63
2021/12/13 08:57:26;;;;;;;;;;;21.30;46.20;;;;;;5084430;28;19999;-63
2021/12/13 08:59:52;;;;;;;;;;;21.40;46.10;;;;;;5079717;28;19970;-63
2021/12/13 09:02:18;;;;;;;;;;;21.50;45.90;;;;;;5079554;28;19920;-63
2021/12/13 09:04:52;;;;;;;;;;;21.60;45.70;;;;;;5072953;28;19934;-63
2021/12/13 09:07:19;;;;;;;;;;;21.60;45.70;;;;;;5076096;28;19912;-63
2021/12/13 09:09:45;;;;;;;;;;;21.70;45.80;;;;;;5087261;28;19916;-62
2021/12/13 09:12:10;;;;;;;;;;;21.70;45.80;;;;;;5089710;28;19968;-63
2021/12/13 09:14:41;;;;;;;;;;;21.80;45.70;;;;;;5081457;28;20011;-63
2021/12/13 09:17:16;;;;;;;;;;;21.80;45.60;;;;;;5104689;27;20281;-62
2021/12/13 09:19:41;;;;;;;;;;;21.80;45.60;;;;;;5088773;28;19961;-64
2021/12/13 09:22:09;;;;;;;;;;;21.80;45.40;;;;;;5081213;28;20011;-63
2021/12/13 09:24:42;;;;;;;;;;;21.80;45.40;;;;;;5086909;28;19915;-63
2021/12/13 09:27:10;;;;;;;;;;;21.90;45.40;;;;;;5077346;28;20364;-63
2021/12/13 09:30:05;;;;;;;;;;;21.90;45.30;;;;;;5075152;28;19912;-62
2021/12/13 09:32:37;;;;;;;;;;;21.90;45.30;;;;;;5072097;28;19912;-63
2021/12/13 09:35:20;;;;;;;;;;;22.00;45.30;;;;;;5088814;28;20394;-62
2021/12/13 09:37:46;;;;;;;;;;;22.00;45.10;;;;;;5088698;28;20015;-62
2021/12/13 09:40:11;;;;;;;;;;;22.10;44.90;;;;;;5094118;28;19995;-64
2021/12/13 09:42:44;;;;;;;;;;;22.20;44.70;;;;;;5078127;28;19924;-62
2021/12/13 09:45:12;;;;;;;;;;;22.30;44.50;;;;;;5087490;28;19920;-63
2021/12/13 09:47:38;;;;;;;;;;;22.40;45.10;;;;;;5092316;28;19938;-62
2021/12/13 09:50:07;;;;;;;;;;;22.50;44.30;;;;;;5092715;28;19912;-63
2021/12/13 09:52:48;;;;;;;;;;;22.50;44.20;;;;;;5089927;28;19916;-63
2021/12/13 09:55:15;;;;;;;;;;;22.60;44.20;;;;;;5091832;28;20015;-63
2021/12/13 09:57:43;;;;;;;;;;;22.60;44.10;;;;;;5084965;28;20253;-62
2021/12/13 10:00:11;;;;;;;;;;;22.60;44.10;;;;;;5086228;28;19961;-62
2021/12/13 10:02:40;;;;;;;;;;;22.60;44.00;;;;;;5089869;28;19913;-63
2021/12/13 10:05:09;;;;;;;;;;;22.70;44.00;;;;;;5089889;28;19969;-62
2021/12/13 10:07:35;;;;;;;;;;;22.70;44.00;;;;;;5080200;28;19912;-63
2021/12/13 10:10:04;;;;;;;;;;;22.70;43.90;;;;;;5084172;28;19908;-62
2021/12/13 10:12:32;;;;;;;;;;;22.70;43.90;;;;;;5080019;28;20296;-62
2021/12/13 10:14:58;;;;;;;;;;;22.80;43.90;;;;;;5080466;28;19928;-63
2021/12/13 10:17:24;;;;;;;;;;;22.80;43.80;;;;;;5086113;28;20384;-63
2021/12/13 10:19:51;;;;;;;;;;;22.80;43.80;;;;;;5090023;28;20407;-62
2021/12/13 10:22:17;;;;;;;;;;;22.80;43.70;;;;;;5084526;28;19909;-63
2021/12/13 10:24:44;;;;;;;;;;;22.90;43.80;;;;;;5089333;28;19919;-63
2021/12/13 10:27:10;;;;;;;;;;;22.90;43.80;;;;;;5088646;28;19922;-62
2021/12/13 10:29:36;;;;;;;;;;;22.90;43.70;;;;;;5091311;28;20003;-63
2021/12/13 10:32:09;;;;;;;;;;;22.90;43.70;;;;;;5085577;28;20324;-63
2021/12/13 10:34:36;;;;;;;;;;;23.00;43.70;;;;;;5076028;28;19962;-63
2021/12/13 10:37:09;;;;;;;;;;;23.00;43.70;;;;;;5083795;28;19912;-62
2021/12/13 10:39:36;;;;;;;;;;;22.90;43.60;;;;;;5092808;28;19923;-62
2021/12/13 10:42:04;;;;;;;;;;;23.00;43.80;;;;;;5088714;28;19912;-62
2021/12/13 10:44:30;;;;;;;;;;;23.00;43.70;;;;;;5092849;28;19999;-62
2021/12/13 10:46:57;;;;;;;;;;;23.00;43.70;;;;;;5088391;28;19920;-62
2021/12/13 10:49:24;;;;;;;;;;;23.00;43.70;;;;;;5075595;28;19908;-62
2021/12/13 10:51:58;;;;;;;;;;;23.00;43.70;;;;;;5076989;28;19916;-62
2021/12/13 10:54:25;;;;;;;;;;;23.10;43.80;;;;;;5089716;28;20057;-63
2021/12/13 10:57:11;;;;;;;;;;;23.10;43.80;;;;;;5086592;28;19920;-64
2021/12/13 10:59:37;;;;;;;;;;;23.10;43.80;;;;;;5079098;28;19923;-63
2021/12/13 11:02:07;;;;;;;;;;;23.10;43.80;;;;;;5080701;28;20292;-64
2021/12/13 11:04:37;;;;;;;;;;;23.20;43.90;;;;;;5087941;28;19908;-63
2021/12/13 11:07:04;;;;;;;;;;;23.20;44.00;;;;;;5082116;28;19959;-63
2021/12/13 11:09:30;;;;;;;;;;;23.30;43.90;;;;;;5086834;28;19916;-63
2021/12/13 11:11:57;;;;;;;;;;;23.30;43.90;;;;;;5083691;28;20398;-63
2021/12/13 11:14:22;;;;;;;;;;;23.40;44.00;;;;;;5081982;28;19921;-63
2021/12/13 11:16:50;;;;;;;;;;;23.40;43.90;;;;;;5097211;28;19920;-64
2021/12/13 11:19:16;;;;;;;;;;;23.40;43.90;;;;;;5076292;28;19924;-63
2021/12/13 11:21:44;;;;;;;;;;;23.40;43.80;;;;;;5090134;28;19912;-62
2021/12/13 11:24:12;;;;;;;;;;;23.40;43.80;;;;;;5086423;28;20606;-63
2021/12/13 11:26:39;;;;;;;;;;;23.40;43.80;;;;;;5086586;28;19923;-63
2021/12/13 11:29:05;;;;;;;;;;;23.50;43.90;;;;;;5088496;28;19920;-63
2021/12/13 11:31:30;;;;;;;;;;;23.40;43.90;;;;;;5083091;28;19957;-62
2021/12/13 11:34:03;;;;;;;;;;;23.40;43.90;;;;;;5093990;28;19912;-62
2021/12/13 11:36:46;;;;;;;;;;;23.50;44.00;;;;;;5090770;28;19912;-62
2021/12/13 11:39:30;;;;;;;;;;;23.50;43.90;;;;;;5089963;28;19931;-63
2021/12/13 11:42:14;;;;;;;;;;;23.50;43.80;;;;;;5076656;28;19912;-63
2021/12/13 11:44:58;;;;;;;;;;;23.50;43.80;;;;;;5088554;28;20368;-63
2021/12/13 11:47:29;;;;;;;;;;;23.50;43.80;;;;;;5074324;28;19981;-63
2021/12/13 11:50:10;;;;;;;;;;;23.60;43.90;;;;;;5079906;28;19935;-63
2021/12/13 11:52:59;;;;;;;;;;;23.60;43.90;;;;;;5078450;28;19917;-63
2021/12/13 11:55:36;;;;;;;;;;;23.60;43.90;;;;;;5080961;28;19935;-63
2021/12/13 11:58:28;;;;;;;;;;;23.60;43.90;;;;;;5082279;28;19917;-63
2021/12/13 12:01:12;;;;;;;;;;;23.60;43.90;;;;;;5053845;28;19916;-63
2021/12/13 12:03:47;;;;;;;;;;;23.60;43.90;;;;;;5085567;28;19995;-63
2021/12/13 12:06:18;;;;;;;;;;;23.70;43.90;;;;;;5083630;28;19978;-63
2021/12/13 12:09:02;;;;;;;;;;;23.70;43.90;;;;;;5092900;28;19919;-63
2021/12/13 12:11:46;;;;;;;;;;;23.70;43.90;;;;;;5088623;28;19916;-63
2021/12/13 12:14:12;;;;;;;;;;;23.70;43.80;;;;;;5090254;28;20341;-63
2021/12/13 12:16:42;;;;;;;;;;;23.70;43.80;;;;;;5077710;28;20018;-64
2021/12/13 12:19:08;;;;;;;;;;;23.70;43.90;;;;;;5090315;28;20221;-63
2021/12/13 12:21:37;;;;;;;;;;;23.70;43.80;;;;;;5080086;28;19916;-64
2021/12/13 12:24:12;;;;;;;;;;;23.80;43.80;;;;;;5089248;28;19961;-63
2021/12/13 12:26:38;;;;;;;;;;;23.80;43.80;;;;;;5076761;28;19916;-63
2021/12/13 12:29:08;;;;;;;;;;;23.80;43.80;;;;;;5089726;28;19912;-63
2021/12/13 12:31:37;;;;;;;;;;;23.80;43.80;;;;;;5077422;28;20272;-63
2021/12/13 12:34:03;;;;;;;;;;;23.80;43.90;;;;;;5079865;28;19939;-62
2021/12/13 12:36:45;;;;;;;;;;;23.80;43.90;;;;;;5086510;28;19912;-63
2021/12/13 12:39:49;;;;;;;;;;;23.80;43.90;;;;;;5087778;28;19917;-63
2021/12/13 12:42:25;;;;;;;;;;;23.80;43.80;;;;;;5021185;28;19966;-63
2021/12/13 12:44:53;;;;;;;;;;;23.80;43.80;;;;;;5004690;28;20084;-63
2021/12/13 12:47:20;;;;;;;;;;;23.80;43.80;;;;;;5051964;28;20334;-62
2021/12/13 12:49:46;;;;;;;;;;;23.80;43.80;;;;;;5077343;28;20364;-63
2021/12/13 12:52:11;;;;;;;;;;;23.80;43.80;;;;;;5082528;28;19951;-63
2021/12/13 12:54:37;;;;;;;;;;;23.80;43.80;;;;;;5085085;28;19916;-63
2021/12/13 12:57:04;;;;;;;;;;;23.90;43.90;;;;;;5073809;28;19923;-63
2021/12/13 12:59:31;;;;;;;;;;;23.80;43.80;;;;;;5084877;28;20376;-64
2021/12/13 13:01:58;;;;;;;;;;;23.90;43.80;;;;;;5072234;28;19913;-63
2021/12/13 13:04:24;;;;;;;;;;;23.90;43.90;;;;;;5079918;28;19916;-63
2021/12/13 13:06:58;;;;;;;;;;;23.90;43.90;;;;;;5077486;28;19917;-63
2021/12/13 13:09:32;;;;;;;;;;;23.90;43.80;;;;;;5086901;28;19923;-62
2021/12/13 13:11:58;;;;;;;;;;;24.00;43.80;;;;;;5067536;28;19912;-63
2021/12/13 13:14:27;;;;;;;;;;;24.00;43.80;;;;;;5090583;28;19924;-63
2021/12/13 13:16:54;;;;;;;;;;;24.00;43.80;;;;;;5075926;28;19919;-63
2021/12/13 13:19:24;;;;;;;;;;;24.00;43.80;;;;;;5062090;28;19920;-63
2021/12/13 13:21:50;;;;;;;;;;;24.00;43.80;;;;;;5088152;28;19969;-63
2021/12/13 13:24:15;;;;;;;;;;;24.00;43.80;;;;;;5087939;28;20323;-63
2021/12/13 13:26:42;;;;;;;;;;;24.00;43.80;;;;;;5085334;28;19909;-64
2021/12/13 13:29:07;;;;;;;;;;;24.00;43.80;;;;;;5073244;28;19935;-63
2021/12/13 13:31:33;;;;;;;;;;;24.00;43.80;;;;;;5080309;28;19912;-63
2021/12/13 13:34:05;;;;;;;;;;;24.00;43.70;;;;;;5096964;28;20003;-63
2021/12/13 13:36:36;;;;;;;;;;;24.00;43.70;;;;;;5088513;28;19923;-64
2021/12/13 13:39:10;;;;;;;;;;;24.00;43.80;;;;;;5088189;28;20272;-62
2021/12/13 13:41:36;;;;;;;;;;;24.00;43.70;;;;;;5082539;28;19912;-63
2021/12/13 13:44:06;;;;;;;;;;;24.00;43.70;;;;;;5073611;28;19934;-63
2021/12/13 13:46:32;;;;;;;;;;;24.10;43.80;;;;;;5085498;28;19992;-62
2021/12/13 13:49:02;;;;;;;;;;;24.10;43.80;;;;;;5074693;28;19962;-63
2021/12/13 13:51:28;;;;;;;;;;;24.10;43.70;;;;;;5089421;28;19961;-62
2021/12/13 13:53:55;;;;;;;;;;;24.10;43.70;;;;;;5078702;28;19958;-62
2021/12/13 13:56:31;;;;;;;;;;;24.10;43.70;;;;;;5085953;28;19916;-63
2021/12/13 13:59:07;;;;;;;;;;;24.10;43.70;;;;;;5086835;28;19916;-62
2021/12/13 14:01:41;;;;;;;;;;;24.10;43.70;;;;;;5087126;28;19999;-62
2021/12/13 14:04:17;;;;;;;;;;;24.10;43.70;;;;;;5074392;28;20293;-63
2021/12/13 14:06:44;;;;;;;;;;;24.10;43.70;;;;;;5067598;28;20372;-62
2021/12/13 14:09:10;;;;;;;;;;;24.10;43.80;;;;;;5081559;28;19920;-63
2021/12/13 14:11:50;;;;;;;;;;;24.20;43.80;;;;;;5081335;28;19912;-62
2021/12/13 14:14:15;;;;;;;;;;;24.20;43.70;;;;;;5082507;28;19920;-64
2021/12/13 14:16:45;;;;;;;;;;;24.10;43.50;;;;;;5098391;28;19912;-63
2021/12/13 14:19:30;;;;;;;;;;;24.20;43.60;;;;;;5072003;28;19920;-62
2021/12/13 14:21:55;;;;;;;;;;;24.20;43.70;;;;;;5083146;28;20626;-62
2021/12/13 14:24:28;;;;;;;;;;;24.10;43.80;;;;;;5088593;28;19916;-63
2021/12/13 14:26:54;;;;;;;;;;;24.20;43.90;;;;;;5084867;28;19916;-62
2021/12/13 14:29:19;;;;;;;;;;;24.20;43.80;;;;;;5092778;28;20406;-63
2021/12/13 14:31:46;;;;;;;;;;;24.20;43.80;;;;;;5080632;28;19974;-63
2021/12/13 14:34:19;;;;;;;;;;;24.20;43.80;;;;;;5085602;28;19912;-63